KMMT/MMT METAR and TAF weather

Enter ICAO airport designator
Station Type Date Time Source
KMMT METAR 2020/07/12 17:56 UTC NOAA

KMMT 121756Z 19007KT 10SM FEW060 BKN220 33/18 A2984 RMK AO2A SLP105 T03310176 10332 20238 58006 $


Station Type Date Time Source
KMMT Decoded METAR 2020/07/12 17:56 UTC NOAA

McEntire Air National Guard Weather Facility Base, SC, United States (KMMT) 33-55N 080-48W
Jul 12, 2020 - 01:56 PM EDT / 2020.07.12 1756 UTC
Wind: from the S (190 degrees) at 8 MPH (7 KT):0
Visibility: 10 mile(s):0
Sky conditions: mostly cloudy
Temperature: 91.6 F (33.1 C)
Dew Point: 63.7 F (17.6 C)
Relative Humidity: 39%
Pressure (altimeter): 29.84 in. Hg (1010 hPa)
Pressure tendency: 0.02 inches (0.6 hPa) lower than three hours ago
ob: KMMT 121756Z 19007KT 10SM FEW060 BKN220 33/18 A2984 RMK AO2A SLP105 T03310176 10332 20238 58006
cycle: 18

Station Type Date Time Source
KMMT TAF 2020/07/12 16:41 UTC NOAA

TAF
AMD KMMT 121620Z 1216/1321 22006KT 9999 BKN250 QNH2979INS
BECMG 1317/1318 21009KT 9999 VCTS SCT040CB BKN100 BKN200 QNH2983INS
TEMPO 1318/1320 21015G25KT 6000 -TSRA BKN035CB OVC080 TX34/1221Z TN23/1311Z

Example: see airport list